This is the latest recevied weather packets stored in our database for station/object JR5YHL-13. If no packets are shown the sender has not sent any weather packets the latest 1 day(s).
| Time | Temp. | Humidity | Pressure | Rain* | Wind** | Luminosity | Snow |
|---|---|---|---|---|---|---|---|
| 1836274331 | 31.11° C | 69% | 1010.4 hPa | 0 mm | 0 m/s | - | - |
| 1836274179 | 30.56° C | 72% | 1010.3 hPa | 0 mm | 0.45 m/s, 45° | - | - |
| 1778051261 | 24.44° C | 57% | 1016.8 hPa | 0 mm | 0.89 m/s, 180° | - | - |
| 1778050663 | 23.89° C | 60% | 1016.7 hPa | 0 mm | 0.89 m/s, 270° | - | - |
| 1778050065 | 23.89° C | 60% | 1016.9 hPa | 0 mm | 0 m/s | - | - |
| 1778049468 | 23.89° C | 58% | 1016.8 hPa | 0 mm | 0.45 m/s, 315° | - | - |
| 1778048870 | 24.44° C | 57% | 1017 hPa | 0 mm | 0.89 m/s, 270° | - | - |
| 1778048272 | 23.33° C | 60% | 1016.7 hPa | 0 mm | 0.89 m/s, 45° | - | - |
| 1778047675 | 23.89° C | 55% | 1017.1 hPa | 0 mm | 0.89 m/s, 225° | - | - |
| 1778047077 | 24.44° C | 54% | 1016.8 hPa | 0 mm | 0 m/s | - | - |
| 1778046479 | 23.33° C | 54% | 1016.9 hPa | 0 mm | 0 m/s | - | - |
| 1778045882 | 24.44° C | 52% | 1017 hPa | 0 mm | 1.34 m/s, 90° | - | - |
| 1778045284 | 23.89° C | 51% | 1017.3 hPa | 0 mm | 1.79 m/s, 68° | - | - |
| 1778044686 | 24.44° C | 51% | 1017.2 hPa | 0 mm | 0.45 m/s, 135° | - | - |
| 1778044088 | 24.44° C | 50% | 1017.3 hPa | 0 mm | 1.34 m/s, 270° | - | - |
| 1778043490 | 25.56° C | 50% | 1017.3 hPa | 0 mm | 1.79 m/s, 90° | - | - |
| 1778042892 | 27.22° C | 49% | 1017.2 hPa | 0 mm | 0.89 m/s, 68° | - | - |
| 1778042294 | 26.11° C | 51% | 1017.4 hPa | 0 mm | 0.89 m/s, 90° | - | - |
| 1778041696 | 25.56° C | 52% | 1017.7 hPa | 0 mm | 2.68 m/s, 45° | - | - |
| 1778041098 | 25.56° C | 52% | 1017.6 hPa | 0 mm | 1.34 m/s, 180° | - | - |
| 1778040501 | 25° C | 53% | 1017.5 hPa | 0 mm | 0.89 m/s, 45° | - | - |
| 1778039903 | 25.56° C | 48% | 1017.8 hPa | 0 mm | 0.45 m/s, 158° | - | - |
| 1778039305 | 26.11° C | 46% | 1017.3 hPa | 0 mm | 1.34 m/s, 45° | - | - |
| 1778038708 | 25.56° C | 51% | 1017.2 hPa | 0 mm | 1.34 m/s, 45° | - | - |
| 1778038110 | 25° C | 51% | 1017.6 hPa | 0 mm | 1.79 m/s, 90° | - | - |
* Rain latest hour (hover to see other rain measurements)
** Current wind speed in m/s (hover to see current wind gust speed)